createdAt,value
2024-02-29T00:00:49.625Z,83.05
2024-02-29T00:03:17.622Z,82.80
2024-02-29T00:05:45.262Z,82.82
2024-02-29T00:08:13.037Z,82.88
2024-02-29T00:10:40.687Z,82.86
2024-02-29T00:13:08.287Z,82.73
2024-02-29T00:18:04.293Z,82.72
2024-02-29T00:20:32.056Z,82.57
2024-02-29T00:23:03.096Z,82.21
2024-02-29T00:25:30.960Z,82.14
2024-02-29T00:27:58.750Z,82.06
2024-02-29T00:30:26.523Z,81.94
2024-02-29T00:32:56.733Z,82.15
2024-02-29T00:35:25.494Z,82.15
2024-02-29T00:37:53.348Z,81.97
2024-02-29T00:40:20.964Z,82.00
2024-02-29T00:42:48.794Z,82.18
2024-02-29T00:45:16.553Z,82.11
2024-02-29T00:47:44.455Z,82.05
2024-02-29T00:50:12.175Z,82.05
2024-02-29T00:52:39.954Z,82.02
2024-02-29T00:55:07.621Z,82.12
2024-02-29T00:57:35.599Z,82.11
2024-02-29T01:00:03.235Z,82.10
2024-02-29T01:02:31.301Z,82.41
2024-02-29T01:04:58.861Z,82.60
2024-02-29T01:07:26.539Z,82.37
2024-02-29T01:09:54.403Z,82.44
2024-02-29T01:12:22.165Z,82.42
2024-02-29T01:14:49.910Z,82.28
2024-02-29T01:17:17.681Z,82.00
2024-02-29T01:19:45.650Z,82.19
2024-02-29T01:22:15.828Z,82.20
2024-02-29T01:24:45.820Z,82.08
2024-02-29T01:27:13.664Z,82.20
2024-02-29T01:29:41.312Z,82.18
2024-02-29T01:32:18.350Z,82.13
2024-02-29T01:34:50.876Z,82.17
2024-02-29T01:37:18.642Z,82.11
2024-02-29T01:39:46.542Z,82.12
2024-02-29T01:42:14.584Z,82.04
2024-02-29T01:44:42.236Z,82.12
2024-02-29T01:47:10.002Z,82.05
2024-02-29T01:49:37.659Z,81.94
2024-02-29T01:52:05.369Z,81.80
2024-02-29T01:54:33.167Z,81.99
2024-02-29T01:57:00.948Z,82.20
2024-02-29T01:59:28.826Z,82.40
2024-02-29T02:01:57.014Z,82.47
2024-02-29T02:04:24.754Z,82.71
2024-02-29T02:06:52.558Z,82.83
2024-02-29T02:09:20.488Z,82.88
2024-02-29T02:11:48.249Z,82.79
2024-02-29T02:14:16.120Z,82.89
2024-02-29T02:16:43.780Z,83.01
2024-02-29T02:19:11.601Z,83.03
2024-02-29T02:21:39.339Z,83.17
2024-02-29T02:24:07.484Z,82.90
2024-02-29T02:26:35.208Z,82.91
2024-02-29T02:29:03.009Z,83.01
2024-02-29T02:31:30.683Z,82.94
2024-02-29T02:33:58.460Z,82.80
2024-02-29T02:36:26.192Z,82.71
2024-02-29T02:38:53.760Z,82.64
2024-02-29T02:41:21.508Z,82.47
2024-02-29T02:43:49.288Z,82.52
2024-02-29T02:46:17.393Z,82.37
2024-02-29T02:48:45.256Z,82.40
2024-02-29T02:51:12.981Z,82.40
2024-02-29T02:53:40.853Z,82.55
2024-02-29T02:56:08.610Z,82.26
2024-02-29T02:58:36.379Z,82.17
2024-02-29T03:01:04.365Z,82.41
2024-02-29T03:03:32.231Z,82.35
2024-02-29T03:06:00.280Z,82.60
2024-02-29T03:08:27.830Z,83.07
2024-02-29T03:10:55.733Z,83.30
2024-02-29T03:13:23.567Z,83.43
2024-02-29T03:15:51.350Z,83.33
2024-02-29T03:18:19.313Z,83.30
2024-02-29T03:20:47.174Z,83.32
2024-02-29T03:23:14.944Z,83.26
2024-02-29T03:25:42.712Z,83.03
2024-02-29T03:28:10.913Z,83.19
2024-02-29T03:30:38.886Z,83.17
2024-02-29T03:33:06.759Z,82.81
2024-02-29T03:35:34.365Z,82.71
2024-02-29T03:38:02.247Z,82.52
2024-02-29T03:40:29.814Z,82.35
2024-02-29T03:42:57.627Z,82.42
2024-02-29T03:45:25.429Z,82.24
2024-02-29T03:47:53.109Z,82.17
2024-02-29T03:50:21.155Z,82.04
2024-02-29T03:52:48.818Z,82.08
2024-02-29T03:55:16.661Z,82.22
2024-02-29T03:57:44.487Z,82.35
2024-02-29T04:00:12.477Z,82.26
2024-02-29T04:02:40.389Z,82.04
2024-02-29T04:05:08.041Z,82.25
2024-02-29T04:07:35.822Z,82.24
2024-02-29T04:10:03.747Z,82.12
2024-02-29T04:12:31.892Z,81.94
2024-02-29T04:14:59.822Z,81.66
2024-02-29T04:17:27.500Z,81.40
2024-02-29T04:19:55.149Z,81.34
2024-02-29T04:22:22.853Z,81.34
2024-02-29T04:24:50.645Z,81.29
2024-02-29T04:27:18.330Z,81.44
2024-02-29T04:29:46.101Z,81.48
2024-02-29T04:32:13.757Z,81.51
2024-02-29T04:34:42.042Z,81.65
2024-02-29T04:37:09.911Z,81.72
2024-02-29T04:39:37.883Z,81.94
2024-02-29T04:42:05.529Z,81.86
2024-02-29T04:44:33.396Z,81.86
2024-02-29T04:47:01.259Z,81.76
2024-02-29T04:49:28.973Z,81.79
2024-02-29T04:51:56.741Z,81.59
2024-02-29T04:54:25.070Z,81.56
2024-02-29T04:56:52.836Z,81.78
2024-02-29T04:59:20.482Z,81.69
2024-02-29T05:01:48.483Z,81.70
2024-02-29T05:04:16.571Z,82.01
2024-02-29T05:06:44.319Z,81.68
2024-02-29T05:09:12.062Z,81.62
2024-02-29T05:11:40.150Z,81.90
2024-02-29T05:14:08.311Z,81.88
2024-02-29T05:16:36.192Z,81.58
2024-02-29T05:19:04.037Z,81.68
2024-02-29T05:21:31.858Z,81.66
2024-02-29T05:23:59.662Z,81.69
2024-02-29T05:26:27.431Z,81.66
2024-02-29T05:28:55.302Z,81.45
2024-02-29T05:31:23.170Z,81.61
2024-02-29T05:33:51.139Z,81.75
2024-02-29T05:36:19.416Z,81.88
2024-02-29T05:38:47.275Z,81.71
2024-02-29T05:41:15.196Z,81.69
2024-02-29T05:43:42.809Z,81.75
2024-02-29T05:46:10.710Z,81.82
2024-02-29T05:48:38.663Z,81.93
2024-02-29T05:51:06.498Z,81.91
2024-02-29T05:53:34.266Z,81.99
2024-02-29T05:56:02.850Z,81.75
2024-02-29T05:58:30.616Z,81.49
2024-02-29T06:00:58.694Z,81.52
2024-02-29T06:03:26.574Z,81.39
2024-02-29T06:05:54.209Z,81.48
2024-02-29T06:08:22.077Z,81.33
2024-02-29T06:10:49.753Z,81.33
2024-02-29T06:13:17.717Z,81.26
2024-02-29T06:15:45.825Z,81.04
2024-02-29T06:18:13.979Z,80.99
2024-02-29T06:20:41.725Z,80.84
2024-02-29T06:23:09.474Z,80.85
2024-02-29T06:25:37.135Z,80.60
2024-02-29T06:28:04.842Z,80.72
2024-02-29T06:30:32.258Z,80.31
2024-02-29T06:32:59.964Z,80.49
2024-02-29T06:35:27.882Z,80.39
2024-02-29T06:37:55.559Z,80.39
2024-02-29T06:40:23.562Z,80.35
2024-02-29T06:42:51.253Z,80.36
2024-02-29T06:45:19.040Z,80.39
2024-02-29T06:47:46.882Z,80.42
2024-02-29T06:50:14.589Z,80.48
2024-02-29T06:52:42.337Z,80.44
2024-02-29T06:55:10.344Z,80.29
2024-02-29T06:57:38.283Z,80.44
2024-02-29T07:00:06.029Z,80.40
2024-02-29T07:02:34.141Z,80.34
2024-02-29T07:05:01.968Z,80.30
2024-02-29T07:07:29.629Z,80.20
2024-02-29T07:09:57.440Z,80.12
2024-02-29T07:12:25.263Z,79.93
2024-02-29T07:14:52.932Z,79.88
2024-02-29T07:17:20.687Z,79.90
2024-02-29T07:19:48.460Z,80.03
2024-02-29T07:22:16.214Z,80.12
2024-02-29T07:24:44.540Z,80.03
2024-02-29T07:27:12.363Z,80.05
2024-02-29T07:29:40.224Z,79.94
2024-02-29T07:32:07.990Z,79.80
2024-02-29T07:34:35.752Z,79.88
2024-02-29T07:37:03.597Z,79.67
2024-02-29T07:39:31.184Z,79.72
2024-02-29T07:41:58.954Z,79.81
2024-02-29T07:44:26.930Z,79.64
2024-02-29T07:46:54.785Z,79.55
2024-02-29T07:49:22.668Z,79.59
2024-02-29T07:51:50.416Z,79.61
2024-02-29T07:54:18.165Z,79.48
2024-02-29T07:56:45.834Z,79.39
2024-02-29T07:59:13.613Z,79.26
2024-02-29T08:01:41.687Z,79.20
2024-02-29T08:04:09.929Z,79.16
2024-02-29T08:06:37.781Z,79.04
2024-02-29T08:09:07.474Z,78.94
2024-02-29T08:11:36.544Z,78.89
2024-02-29T08:14:04.374Z,78.93
2024-02-29T08:16:32.041Z,79.03
2024-02-29T08:18:59.744Z,78.85
2024-02-29T08:21:27.679Z,78.84
2024-02-29T08:23:55.546Z,78.81
2024-02-29T08:26:23.814Z,78.56
2024-02-29T08:28:51.598Z,78.33
2024-02-29T08:31:19.668Z,78.09
2024-02-29T08:33:47.659Z,78.14
2024-02-29T08:36:15.490Z,78.16
2024-02-29T08:38:43.341Z,78.22
2024-02-29T08:41:11.117Z,77.93
2024-02-29T08:43:38.972Z,77.79
2024-02-29T08:46:06.693Z,77.66
2024-02-29T08:48:34.963Z,77.78
2024-02-29T08:51:02.801Z,77.94
2024-02-29T08:53:30.646Z,77.71
2024-02-29T08:55:58.419Z,77.62
2024-02-29T08:58:26.244Z,77.10
2024-02-29T09:00:54.084Z,76.88
2024-02-29T09:03:22.013Z,76.49
2024-02-29T09:05:49.900Z,76.25
2024-02-29T09:08:20.689Z,75.85
2024-02-29T09:10:49.864Z,75.83
2024-02-29T09:13:29.605Z,75.76
2024-02-29T09:16:02.659Z,76.14
2024-02-29T09:18:30.501Z,76.17
2024-02-29T09:20:58.270Z,76.20
2024-02-29T09:23:26.238Z,75.70
2024-02-29T09:25:54.107Z,75.22
2024-02-29T09:28:22.329Z,74.95
2024-02-29T09:30:50.276Z,74.77
2024-02-29T09:33:18.360Z,74.42
2024-02-29T09:35:46.294Z,74.48
2024-02-29T09:38:14.180Z,74.61
2024-02-29T09:40:49.196Z,74.19
2024-02-29T09:43:20.466Z,73.62
2024-02-29T09:45:48.323Z,73.08
2024-02-29T09:48:16.511Z,73.29
2024-02-29T09:50:44.143Z,73.44
2024-02-29T09:53:11.911Z,73.01
2024-02-29T09:55:39.463Z,73.15
2024-02-29T09:58:07.240Z,73.50
2024-02-29T10:00:34.683Z,73.75
2024-02-29T10:03:02.541Z,73.80
2024-02-29T10:05:30.202Z,73.73
2024-02-29T10:07:57.977Z,73.72
2024-02-29T10:10:25.837Z,73.79
2024-02-29T10:12:54.164Z,73.82
2024-02-29T10:15:22.083Z,73.90
2024-02-29T10:17:50.260Z,73.83
2024-02-29T10:20:18.532Z,73.89
2024-02-29T10:22:48.452Z,73.74
2024-02-29T10:25:17.999Z,73.44
2024-02-29T10:27:45.862Z,73.58
2024-02-29T10:30:13.693Z,73.81
2024-02-29T10:32:41.464Z,73.59
2024-02-29T10:35:09.318Z,73.15
2024-02-29T10:37:37.489Z,73.32
2024-02-29T10:40:08.505Z,73.19
2024-02-29T10:42:36.542Z,73.02
2024-02-29T10:45:04.468Z,72.80
2024-02-29T10:47:32.373Z,73.05
2024-02-29T10:50:00.230Z,72.88
2024-02-29T10:52:28.255Z,72.82
2024-02-29T10:54:56.160Z,72.73
2024-02-29T10:57:23.999Z,72.99
2024-02-29T10:59:51.765Z,73.13
2024-02-29T11:02:19.523Z,73.32
2024-02-29T11:04:47.353Z,73.13
2024-02-29T11:07:15.025Z,73.24
2024-02-29T11:09:42.932Z,73.21
2024-02-29T11:12:10.875Z,73.14
2024-02-29T11:14:39.000Z,73.27
2024-02-29T11:17:07.142Z,73.27
2024-02-29T11:19:42.366Z,73.11
2024-02-29T11:22:17.060Z,73.19
2024-02-29T11:24:45.323Z,73.15
2024-02-29T11:27:13.337Z,73.17
2024-02-29T11:29:41.111Z,73.23
2024-02-29T11:32:10.436Z,73.14
2024-02-29T11:34:38.363Z,73.17
2024-02-29T11:37:06.497Z,73.20
2024-02-29T11:39:34.404Z,73.18
2024-02-29T11:42:02.103Z,73.20
2024-02-29T11:44:29.849Z,73.40
2024-02-29T11:46:57.603Z,73.46
2024-02-29T11:49:25.506Z,73.29
2024-02-29T11:51:53.365Z,73.11
2024-02-29T11:54:23.307Z,73.26
2024-02-29T11:56:51.314Z,72.95
2024-02-29T11:59:18.992Z,72.94
2024-02-29T12:01:47.274Z,72.69
2024-02-29T12:04:15.340Z,72.35
2024-02-29T12:06:43.318Z,72.67
2024-02-29T12:09:11.074Z,72.46
2024-02-29T12:11:38.923Z,72.32
2024-02-29T12:14:06.699Z,71.71
2024-02-29T12:16:35.077Z,71.66
2024-02-29T12:19:02.886Z,71.81
2024-02-29T12:21:30.592Z,71.65
2024-02-29T12:23:58.364Z,71.35
2024-02-29T12:26:26.121Z,71.14
2024-02-29T12:28:53.793Z,71.35
2024-02-29T12:31:21.612Z,71.34
2024-02-29T12:33:49.382Z,71.05
2024-02-29T12:36:17.266Z,70.48
2024-02-29T12:38:45.575Z,69.89
2024-02-29T12:41:13.422Z,69.55
2024-02-29T12:43:41.299Z,70.00
2024-02-29T12:46:09.151Z,70.59
2024-02-29T12:48:37.034Z,70.77
2024-02-29T12:51:05.067Z,70.88
2024-02-29T12:53:32.863Z,70.83
2024-02-29T12:56:00.627Z,70.02
2024-02-29T12:58:28.947Z,69.43
2024-02-29T13:00:56.875Z,69.78
2024-02-29T13:03:24.526Z,70.03
2024-02-29T13:05:52.298Z,70.18
2024-02-29T13:08:20.171Z,69.97
2024-02-29T13:10:48.026Z,69.91
2024-02-29T13:13:15.834Z,69.83
2024-02-29T13:15:43.679Z,69.05
2024-02-29T13:18:11.362Z,68.06
2024-02-29T13:20:39.201Z,67.79
2024-02-29T13:23:07.053Z,67.75
2024-02-29T13:25:34.927Z,67.68
2024-02-29T13:28:02.700Z,67.69
2024-02-29T13:30:30.438Z,67.97
2024-02-29T13:32:58.360Z,67.70
2024-02-29T13:35:26.385Z,67.74
2024-02-29T13:37:54.241Z,67.91
2024-02-29T13:40:21.942Z,67.88
2024-02-29T13:42:49.908Z,67.84
2024-02-29T13:45:17.958Z,67.67
2024-02-29T13:47:45.737Z,68.19
2024-02-29T13:50:13.482Z,68.18
2024-02-29T13:52:41.343Z,68.38
2024-02-29T13:55:09.032Z,68.49
2024-02-29T13:57:36.873Z,68.42
2024-02-29T14:00:04.566Z,68.20
2024-02-29T14:02:32.305Z,68.15
2024-02-29T14:05:00.405Z,67.87
2024-02-29T14:07:28.360Z,67.97
2024-02-29T14:09:56.363Z,68.11
2024-02-29T14:12:24.082Z,68.28
2024-02-29T14:14:51.838Z,68.26
2024-02-29T14:17:19.511Z,68.26
2024-02-29T14:19:47.457Z,68.07
2024-02-29T14:22:15.466Z,68.04
2024-02-29T14:24:43.274Z,68.19
2024-02-29T14:27:11.379Z,68.05
2024-02-29T14:29:39.651Z,68.10
2024-02-29T14:32:07.406Z,68.42
2024-02-29T14:34:35.241Z,68.80
2024-02-29T14:37:03.118Z,68.78
2024-02-29T14:39:30.801Z,68.74
2024-02-29T14:41:58.455Z,68.63
2024-02-29T14:44:26.236Z,68.86
2024-02-29T14:46:54.303Z,69.09
2024-02-29T14:49:22.392Z,69.09
2024-02-29T14:51:50.364Z,68.88
2024-02-29T14:54:18.235Z,68.92
2024-02-29T14:56:46.056Z,69.13
2024-02-29T14:59:13.828Z,69.07
2024-02-29T15:01:41.583Z,68.85
2024-02-29T15:04:09.482Z,69.21
2024-02-29T15:06:37.645Z,69.36
2024-02-29T15:09:05.487Z,69.44
2024-02-29T15:11:33.318Z,69.47
2024-02-29T15:14:01.124Z,69.47
2024-02-29T15:16:29.164Z,69.57
2024-02-29T15:18:56.990Z,69.79
2024-02-29T15:21:24.943Z,69.86
2024-02-29T15:23:52.805Z,69.88
2024-02-29T15:26:20.572Z,69.97
2024-02-29T15:28:48.538Z,70.18
2024-02-29T15:31:16.411Z,70.47
2024-02-29T15:33:44.335Z,70.70
2024-02-29T15:36:12.031Z,70.93
2024-02-29T15:38:39.816Z,71.35
2024-02-29T15:41:07.671Z,71.54
2024-02-29T15:43:35.415Z,71.74
2024-02-29T15:46:03.332Z,71.97
2024-02-29T15:48:31.375Z,72.23
2024-02-29T15:50:59.347Z,72.51
2024-02-29T15:53:27.196Z,72.90
2024-02-29T15:55:55.163Z,72.93
2024-02-29T15:58:22.978Z,73.24
2024-02-29T16:00:50.613Z,73.44
2024-02-29T16:03:18.570Z,73.90
2024-02-29T16:05:46.216Z,74.01
2024-02-29T16:08:14.189Z,74.26
2024-02-29T16:10:41.743Z,74.53
2024-02-29T16:13:12.515Z,74.71
2024-02-29T16:15:40.356Z,74.86
2024-02-29T16:18:08.251Z,75.16
2024-02-29T16:20:35.904Z,75.27
2024-02-29T16:23:03.761Z,75.36
2024-02-29T16:25:31.774Z,75.82
2024-02-29T16:27:59.639Z,76.15
2024-02-29T16:30:27.440Z,76.50
2024-02-29T16:32:55.326Z,76.66
2024-02-29T16:35:23.388Z,76.88
2024-02-29T16:37:51.140Z,77.02
2024-02-29T16:40:18.991Z,77.15
2024-02-29T16:42:46.746Z,77.18
2024-02-29T16:45:14.640Z,77.33
2024-02-29T16:47:42.421Z,77.46
2024-02-29T16:50:10.166Z,77.43
2024-02-29T16:52:38.058Z,77.64
2024-02-29T16:55:06.367Z,77.61
2024-02-29T16:57:34.508Z,77.73
2024-02-29T17:00:02.235Z,77.84
2024-02-29T17:02:29.903Z,77.80
2024-02-29T17:04:57.674Z,77.83
2024-02-29T17:07:25.391Z,77.86
2024-02-29T17:09:53.209Z,77.76
2024-02-29T17:12:20.971Z,77.98
2024-02-29T17:14:48.833Z,78.25
2024-02-29T17:17:16.596Z,78.54
2024-02-29T17:19:44.662Z,79.49
2024-02-29T17:22:12.512Z,79.45
2024-02-29T17:24:40.291Z,79.29
2024-02-29T17:27:08.045Z,78.63
2024-02-29T17:29:35.857Z,78.32
2024-02-29T17:32:03.682Z,79.48
2024-02-29T17:34:31.474Z,79.81
2024-02-29T17:36:59.707Z,79.95
2024-02-29T17:39:27.390Z,79.98
2024-02-29T17:41:55.143Z,80.35
2024-02-29T17:44:22.910Z,80.37
2024-02-29T17:46:50.676Z,80.44
2024-02-29T17:49:18.564Z,80.43
2024-02-29T17:51:46.365Z,80.44
2024-02-29T17:54:14.073Z,80.12
2024-02-29T17:56:41.629Z,80.05
2024-02-29T17:59:09.490Z,80.22
2024-02-29T18:01:37.295Z,80.23
2024-02-29T18:04:05.262Z,80.33
2024-02-29T18:06:33.107Z,80.41
2024-02-29T18:09:00.859Z,80.78
2024-02-29T18:11:29.004Z,81.00
2024-02-29T18:13:56.792Z,80.89
2024-02-29T18:16:24.596Z,81.39
2024-02-29T18:18:52.592Z,81.52
2024-02-29T18:21:20.406Z,81.10
2024-02-29T18:23:48.152Z,81.02
2024-02-29T18:26:16.522Z,80.82
2024-02-29T18:28:44.507Z,80.79
2024-02-29T18:31:12.304Z,80.71
2024-02-29T18:33:40.608Z,80.93
2024-02-29T18:36:08.427Z,81.37
2024-02-29T18:38:36.274Z,81.15
2024-02-29T18:41:03.948Z,81.71
2024-02-29T18:43:31.635Z,81.81
2024-02-29T18:46:05.703Z,81.55
2024-02-29T18:48:34.706Z,81.16
2024-02-29T18:51:02.398Z,80.71
2024-02-29T18:53:30.460Z,80.58
2024-02-29T18:55:58.106Z,80.67
2024-02-29T18:58:25.825Z,80.33
2024-02-29T19:00:53.806Z,80.11
2024-02-29T19:03:21.599Z,79.95
2024-02-29T19:05:49.360Z,80.32
2024-02-29T19:08:17.019Z,80.79
2024-02-29T19:10:44.808Z,80.80
2024-02-29T19:13:13.087Z,80.87
2024-02-29T19:15:41.137Z,80.72
2024-02-29T19:18:09.176Z,80.84
2024-02-29T19:20:36.774Z,80.76
2024-02-29T19:23:04.833Z,81.36
2024-02-29T19:25:32.615Z,82.38
2024-02-29T19:28:00.528Z,82.69
2024-02-29T19:30:28.445Z,82.75
2024-02-29T19:32:56.134Z,82.86
2024-02-29T19:35:23.853Z,82.66
2024-02-29T19:37:51.619Z,82.66
2024-02-29T19:40:19.748Z,82.19
2024-02-29T19:42:47.434Z,82.16
2024-02-29T19:45:15.115Z,81.75
2024-02-29T19:47:42.824Z,81.28
2024-02-29T19:50:10.646Z,80.34
2024-02-29T19:52:38.556Z,80.00
2024-02-29T19:55:06.779Z,79.96
2024-02-29T19:57:35.266Z,80.80
2024-02-29T20:00:03.040Z,81.34
2024-02-29T20:02:30.698Z,82.32
2024-02-29T20:04:58.466Z,82.65
2024-02-29T20:07:26.207Z,83.17
2024-02-29T20:09:54.015Z,83.20
2024-02-29T20:12:21.864Z,83.28
2024-02-29T20:14:49.928Z,83.25
2024-02-29T20:17:17.791Z,83.30
2024-02-29T20:19:45.915Z,83.18
2024-02-29T20:22:13.760Z,82.98
2024-02-29T20:24:41.482Z,82.72
2024-02-29T20:27:09.155Z,82.87
2024-02-29T20:29:37.019Z,82.78
2024-02-29T20:32:04.893Z,82.74
2024-02-29T20:34:32.736Z,82.30
2024-02-29T20:37:00.565Z,82.11
2024-02-29T20:39:28.375Z,81.81
2024-02-29T20:41:56.147Z,82.00
2024-02-29T20:44:23.922Z,80.98
2024-02-29T20:46:51.791Z,80.72
2024-02-29T20:49:19.464Z,80.67
2024-02-29T20:51:47.231Z,80.76
2024-02-29T20:54:14.957Z,81.79
2024-02-29T20:56:42.739Z,82.05
2024-02-29T20:59:10.802Z,81.44
2024-02-29T21:01:38.554Z,81.08
2024-02-29T21:04:06.455Z,81.48
2024-02-29T21:06:33.996Z,81.90
2024-02-29T21:09:01.758Z,81.74
2024-02-29T21:11:29.540Z,81.11
2024-02-29T21:13:57.273Z,81.14
2024-02-29T21:16:24.917Z,81.39
2024-02-29T21:18:52.717Z,81.23
2024-02-29T21:21:20.476Z,81.25
2024-02-29T21:23:48.226Z,81.70
2024-02-29T21:26:15.889Z,82.25
2024-02-29T21:28:43.673Z,82.88
2024-02-29T21:31:11.545Z,83.16
2024-02-29T21:33:39.289Z,83.37
2024-02-29T21:36:06.949Z,83.50
2024-02-29T21:38:34.607Z,83.47
2024-02-29T21:41:02.685Z,83.38
2024-02-29T21:43:30.779Z,83.44
2024-02-29T21:45:58.534Z,83.27
2024-02-29T21:48:26.292Z,83.31
2024-02-29T21:50:54.146Z,82.99
2024-02-29T21:53:22.012Z,82.75
2024-02-29T21:55:49.687Z,82.46
2024-02-29T21:58:17.465Z,82.71
2024-02-29T22:00:45.164Z,82.88
2024-02-29T22:03:16.251Z,83.02
2024-02-29T22:05:44.011Z,83.04
2024-02-29T22:08:11.874Z,82.94
2024-02-29T22:10:39.660Z,82.97
2024-02-29T22:13:07.651Z,82.81
2024-02-29T22:15:35.285Z,83.00
2024-02-29T22:18:03.009Z,83.16
2024-02-29T22:20:30.794Z,83.14
2024-02-29T22:22:58.668Z,83.26
2024-02-29T22:25:26.569Z,83.40
2024-02-29T22:27:54.651Z,83.09
2024-02-29T22:30:22.359Z,83.10
2024-02-29T22:32:50.051Z,83.29
2024-02-29T22:35:17.806Z,83.32
2024-02-29T22:37:45.553Z,83.42
2024-02-29T22:40:13.433Z,83.32
2024-02-29T22:42:41.390Z,83.19
2024-02-29T22:45:09.245Z,83.26
2024-02-29T22:47:37.368Z,83.10
2024-02-29T22:50:05.185Z,82.99
2024-02-29T22:52:33.043Z,83.26
2024-02-29T22:55:00.882Z,83.28
2024-02-29T22:57:28.894Z,83.21
2024-02-29T22:59:56.560Z,83.21
2024-02-29T23:02:24.433Z,83.28
2024-02-29T23:04:52.283Z,83.26
2024-02-29T23:07:20.381Z,83.33
2024-02-29T23:09:48.768Z,83.34
2024-02-29T23:12:16.498Z,83.41
2024-02-29T23:14:44.171Z,83.21
2024-02-29T23:17:12.023Z,83.27
2024-02-29T23:19:39.893Z,83.37
2024-02-29T23:22:07.594Z,83.51
2024-02-29T23:24:35.931Z,83.52
2024-02-29T23:27:03.905Z,83.69
2024-02-29T23:29:32.061Z,83.57
2024-02-29T23:31:59.729Z,83.63
2024-02-29T23:34:27.638Z,83.77
2024-02-29T23:36:55.662Z,83.70
2024-02-29T23:39:23.532Z,83.66
2024-02-29T23:41:51.198Z,83.66
2024-02-29T23:44:19.186Z,83.68
2024-02-29T23:46:46.950Z,83.58
2024-02-29T23:49:15.313Z,83.68
2024-02-29T23:51:43.089Z,83.65
2024-02-29T23:54:10.836Z,83.55
2024-02-29T23:56:38.507Z,83.51
2024-02-29T23:59:06.575Z,83.75
